createdAt,value
2018-08-23T00:00:48.180Z,20.88
2018-08-23T00:03:22.647Z,20.84
2018-08-23T00:05:53.939Z,20.83
2018-08-23T00:08:23.516Z,20.80
2018-08-23T00:10:53.376Z,20.75
2018-08-23T00:13:22.909Z,20.73
2018-08-23T00:15:52.018Z,20.66
2018-08-23T00:18:21.109Z,20.61
2018-08-23T00:20:50.228Z,20.57
2018-08-23T00:23:19.318Z,20.57
2018-08-23T00:25:48.412Z,20.53
2018-08-23T00:28:17.609Z,20.49
2018-08-23T00:30:47.057Z,20.44
2018-08-23T00:33:16.141Z,20.40
2018-08-23T00:35:45.267Z,20.38
2018-08-23T00:38:14.583Z,20.34
2018-08-23T00:40:44.876Z,20.35
2018-08-23T00:43:15.271Z,20.29
2018-08-23T00:45:44.383Z,20.29
2018-08-23T00:48:13.480Z,20.23
2018-08-23T00:50:50.723Z,20.19
2018-08-23T00:53:19.883Z,20.14
2018-08-23T00:55:50.315Z,20.09
2018-08-23T00:58:19.471Z,20.03
2018-08-23T01:00:54.687Z,19.99
2018-08-23T01:03:24.165Z,19.95
2018-08-23T01:05:53.321Z,19.93
2018-08-23T01:08:27.736Z,19.88
2018-08-23T01:10:56.881Z,19.86
2018-08-23T01:13:25.972Z,19.87
2018-08-23T01:15:55.103Z,19.84
2018-08-23T01:18:24.249Z,19.83
2018-08-23T01:20:53.762Z,19.78
2018-08-23T01:23:22.914Z,19.78
2018-08-23T01:25:52.349Z,19.74
2018-08-23T01:28:21.513Z,19.71
2018-08-23T01:30:51.037Z,19.69
2018-08-23T01:33:22.173Z,19.69
2018-08-23T01:35:52.133Z,19.64
2018-08-23T01:38:21.316Z,19.60
2018-08-23T01:40:54.112Z,19.57
2018-08-23T01:43:24.407Z,19.53
2018-08-23T01:45:53.647Z,19.55
2018-08-23T01:48:22.870Z,19.53
2018-08-23T01:50:52.026Z,19.52
2018-08-23T01:53:22.551Z,19.51
2018-08-23T01:55:51.685Z,19.49
2018-08-23T01:58:20.784Z,19.46
2018-08-23T02:01:09.036Z,19.43
2018-08-23T02:03:38.152Z,19.42
2018-08-23T02:06:07.372Z,19.39
2018-08-23T02:08:36.525Z,19.38
2018-08-23T02:11:05.712Z,19.35
2018-08-23T02:13:34.845Z,19.37
2018-08-23T02:16:04.629Z,19.38
2018-08-23T02:18:34.290Z,19.41
2018-08-23T02:21:09.490Z,19.38
2018-08-23T02:23:48.062Z,19.36
2018-08-23T02:26:17.200Z,19.34
2018-08-23T02:28:47.943Z,19.31
2018-08-23T02:31:17.210Z,19.28
2018-08-23T02:33:46.398Z,19.27
2018-08-23T02:36:16.471Z,19.27
2018-08-23T02:38:56.433Z,19.26
2018-08-23T02:41:25.541Z,19.25
2018-08-23T02:43:54.675Z,19.26
2018-08-23T02:46:23.886Z,19.27
2018-08-23T02:48:53.020Z,19.26
2018-08-23T02:51:31.752Z,19.24
2018-08-23T02:54:00.892Z,19.21
2018-08-23T02:56:30.123Z,19.12
2018-08-23T02:59:04.273Z,19.08
2018-08-23T03:01:34.443Z,19.09
2018-08-23T03:04:11.898Z,19.03
2018-08-23T03:06:49.023Z,19.03
2018-08-23T03:09:19.624Z,19.02
2018-08-23T03:11:50.014Z,18.97
2018-08-23T03:14:20.485Z,18.98
2018-08-23T03:16:56.163Z,18.95
2018-08-23T03:19:25.344Z,18.91
2018-08-23T03:22:01.577Z,18.92
2018-08-23T03:24:30.777Z,18.95
2018-08-23T03:26:59.880Z,18.93
2018-08-23T03:29:29.009Z,18.89
2018-08-23T03:31:58.144Z,18.89
2018-08-23T03:34:27.255Z,18.87
2018-08-23T03:36:56.400Z,18.83
2018-08-23T03:39:25.574Z,18.87
2018-08-23T03:41:54.693Z,18.87
2018-08-23T03:44:29.099Z,18.86
2018-08-23T03:46:58.254Z,18.82
2018-08-23T03:49:33.724Z,18.79
2018-08-23T03:52:02.884Z,18.81
2018-08-23T03:54:32.037Z,18.77
2018-08-23T03:57:15.786Z,18.78
2018-08-23T03:59:47.107Z,18.74
2018-08-23T04:02:17.386Z,18.76
2018-08-23T04:04:47.937Z,18.72
2018-08-23T04:07:17.692Z,18.68
2018-08-23T04:09:46.817Z,18.65
2018-08-23T04:12:15.982Z,18.62
2018-08-23T04:14:45.097Z,18.60
2018-08-23T04:17:14.207Z,18.61
2018-08-23T04:19:47.898Z,18.63
2018-08-23T04:22:17.308Z,18.66
2018-08-23T04:24:54.522Z,18.64
2018-08-23T04:27:23.689Z,18.68
2018-08-23T04:29:52.825Z,18.70
2018-08-23T04:32:29.576Z,18.70
2018-08-23T04:35:00.249Z,18.67
2018-08-23T04:37:30.274Z,18.67
2018-08-23T04:40:03.370Z,18.69
2018-08-23T04:42:32.494Z,18.76
2018-08-23T04:45:12.750Z,18.77
2018-08-23T04:48:18.673Z,18.77
2018-08-23T04:50:47.806Z,18.77
2018-08-23T04:53:16.948Z,18.77
2018-08-23T04:55:46.112Z,18.82
2018-08-23T04:58:15.225Z,18.83
2018-08-23T05:00:44.454Z,18.85
2018-08-23T05:03:13.646Z,18.86
2018-08-23T05:05:42.790Z,18.92
2018-08-23T05:10:50.017Z,19.02
2018-08-23T05:13:19.175Z,19.06
2018-08-23T05:15:48.267Z,19.12
2018-08-23T05:20:55.082Z,19.21
2018-08-23T05:23:24.195Z,19.27
2018-08-23T05:25:58.036Z,19.40
2018-08-23T05:28:27.195Z,19.56
2018-08-23T05:30:56.395Z,19.72
2018-08-23T05:33:25.519Z,19.87
2018-08-23T05:35:54.696Z,19.99
2018-08-23T05:38:23.799Z,20.13
2018-08-23T05:40:56.228Z,20.27
2018-08-23T05:43:25.336Z,20.41
2018-08-23T05:45:55.748Z,20.53
2018-08-23T05:48:32.135Z,20.69
2018-08-23T05:51:08.474Z,20.88
2018-08-23T05:53:44.180Z,21.12
2018-08-23T05:56:13.315Z,21.25
2018-08-23T05:58:42.507Z,21.47
2018-08-23T06:01:11.707Z,21.66
2018-08-23T06:03:40.885Z,21.93
2018-08-23T06:06:10.035Z,22.07
2018-08-23T06:08:43.597Z,22.18
2018-08-23T06:11:12.742Z,22.30
2018-08-23T06:13:41.936Z,22.45
2018-08-23T06:16:11.090Z,22.63
2018-08-23T06:18:40.213Z,22.63
2018-08-23T06:21:09.381Z,22.79
2018-08-23T06:24:04.151Z,22.92
2018-08-23T06:26:41.335Z,23.28
2018-08-23T06:29:12.915Z,23.47
2018-08-23T06:34:52.518Z,23.78
2018-08-23T06:37:22.677Z,23.80
2018-08-23T06:39:51.885Z,24.12
2018-08-23T06:45:14.371Z,24.59
2018-08-23T06:47:45.912Z,24.60
2018-08-23T06:50:15.064Z,24.89
2018-08-23T06:52:50.011Z,25.10
2018-08-23T06:55:24.316Z,25.06
2018-08-23T06:57:57.521Z,25.44
2018-08-23T07:00:26.984Z,25.41
2018-08-23T07:02:56.295Z,25.62
2018-08-23T07:05:25.576Z,25.75
2018-08-23T07:07:54.776Z,26.04
2018-08-23T07:10:25.054Z,26.24
2018-08-23T07:12:56.732Z,26.42
2018-08-23T07:15:26.242Z,26.66
2018-08-23T07:17:55.345Z,26.69
2018-08-23T07:20:24.626Z,26.54
2018-08-23T07:22:53.776Z,26.85
2018-08-23T07:25:22.981Z,26.97
2018-08-23T07:27:52.225Z,27.21
2018-08-23T07:30:21.769Z,26.91
2018-08-23T07:32:51.329Z,26.83
2018-08-23T07:35:21.371Z,27.02
2018-08-23T07:37:51.877Z,27.11
2018-08-23T07:40:23.279Z,26.95
2018-08-23T07:42:53.631Z,27.31
2018-08-23T07:45:23.150Z,27.68
2018-08-23T07:47:53.621Z,27.96
2018-08-23T07:50:22.750Z,27.58
2018-08-23T07:52:53.438Z,27.64
2018-08-23T07:55:22.470Z,27.98
2018-08-23T07:57:51.617Z,28.15
2018-08-23T08:00:29.841Z,27.56
2018-08-23T08:02:58.957Z,28.12
2018-08-23T08:05:31.344Z,28.41
2018-08-23T08:08:00.423Z,28.39
2018-08-23T08:10:34.418Z,28.14
2018-08-23T08:13:03.555Z,28.21
2018-08-23T08:15:32.816Z,28.35
2018-08-23T08:18:10.912Z,28.23
2018-08-23T08:20:40.042Z,28.77
2018-08-23T08:23:09.137Z,28.98
2018-08-23T08:25:38.278Z,29.38
2018-08-23T08:28:14.564Z,29.08
2018-08-23T08:30:45.380Z,29.37
2018-08-23T08:33:21.402Z,29.15
2018-08-23T08:35:51.838Z,29.14
2018-08-23T08:38:21.055Z,29.78
2018-08-23T08:40:52.187Z,29.86
2018-08-23T08:43:21.379Z,29.71
2018-08-23T08:45:56.643Z,29.76
2018-08-23T08:48:32.807Z,29.72
2018-08-23T08:51:25.399Z,29.71
2018-08-23T08:53:55.494Z,29.45
2018-08-23T08:56:29.134Z,29.94
2018-08-23T08:58:58.239Z,30.40
2018-08-23T09:01:27.424Z,29.71
2018-08-23T09:03:56.560Z,30.61
2018-08-23T09:06:31.732Z,30.75
2018-08-23T09:11:50.889Z,30.26
2018-08-23T09:14:21.039Z,30.85
2018-08-23T09:16:50.160Z,31.19
2018-08-23T09:19:19.333Z,31.56
2018-08-23T09:21:59.625Z,31.35
2018-08-23T09:24:28.789Z,30.66
2018-08-23T09:26:57.879Z,30.89
2018-08-23T09:29:35.992Z,31.49
2018-08-23T09:32:15.508Z,31.42
2018-08-23T09:34:44.579Z,31.38
2018-08-23T09:37:13.778Z,31.48
2018-08-23T09:39:42.886Z,31.01
2018-08-23T09:42:12.036Z,30.25
2018-08-23T09:44:59.251Z,30.15
2018-08-23T09:47:28.847Z,30.94
2018-08-23T09:49:58.745Z,30.96
2018-08-23T09:52:30.601Z,31.09
2018-08-23T09:54:59.762Z,31.19
2018-08-23T09:57:28.921Z,31.22
2018-08-23T09:59:58.093Z,31.16
2018-08-23T10:02:32.463Z,31.37
2018-08-23T10:05:04.549Z,30.48
2018-08-23T10:07:38.981Z,31.39
2018-08-23T10:10:13.243Z,32.00
2018-08-23T10:12:47.679Z,32.67
2018-08-23T10:15:22.656Z,32.28
2018-08-23T10:17:57.037Z,32.61
2018-08-23T10:20:31.190Z,32.13
2018-08-23T10:23:05.623Z,31.41
2018-08-23T10:25:39.869Z,30.96
2018-08-23T10:28:11.265Z,30.92
2018-08-23T10:30:40.500Z,31.45
2018-08-23T10:33:09.832Z,32.16
2018-08-23T10:35:43.353Z,32.66
2018-08-23T10:38:14.319Z,33.16
2018-08-23T10:40:44.671Z,32.41
2018-08-23T10:43:14.267Z,32.16
2018-08-23T10:45:43.706Z,31.51
2018-08-23T10:48:18.156Z,31.62
2018-08-23T10:50:48.473Z,32.03
2018-08-23T10:53:17.967Z,32.01
2018-08-23T10:55:47.218Z,32.30
2018-08-23T10:58:16.342Z,32.37
2018-08-23T11:00:45.542Z,32.59
2018-08-23T11:03:14.716Z,33.13
2018-08-23T11:05:43.900Z,33.00
2018-08-23T11:08:19.123Z,33.23
2018-08-23T11:10:53.607Z,33.13
2018-08-23T11:14:00.648Z,33.76
2018-08-23T11:16:35.029Z,33.36
2018-08-23T11:19:09.588Z,33.24
2018-08-23T11:21:38.742Z,33.21
2018-08-23T11:24:07.917Z,32.48
2018-08-23T11:26:37.068Z,33.15
2018-08-23T11:29:06.238Z,33.12
2018-08-23T11:31:35.332Z,33.12
2018-08-23T11:34:04.542Z,33.24
2018-08-23T11:36:33.659Z,33.17
2018-08-23T11:39:02.804Z,33.50
2018-08-23T11:41:31.929Z,33.52
2018-08-23T11:44:01.090Z,33.42
2018-08-23T11:46:30.219Z,33.12
2018-08-23T11:48:59.450Z,33.19
2018-08-23T11:51:28.544Z,33.21
2018-08-23T11:53:57.778Z,33.10
2018-08-23T11:56:26.836Z,33.01
2018-08-23T11:58:56.073Z,32.44
2018-08-23T12:01:25.227Z,32.34
2018-08-23T12:03:54.443Z,32.38
2018-08-23T12:06:23.743Z,33.11
2018-08-23T12:08:52.868Z,32.95
2018-08-23T12:11:22.133Z,33.14
2018-08-23T12:13:51.758Z,32.63
2018-08-23T12:16:21.045Z,31.74
2018-08-23T12:18:50.275Z,32.06
2018-08-23T12:21:19.548Z,32.49
2018-08-23T12:23:48.701Z,32.14
2018-08-23T12:26:18.065Z,32.29
2018-08-23T12:28:52.207Z,31.96
2018-08-23T12:31:21.431Z,32.24
2018-08-23T12:33:50.614Z,31.32
2018-08-23T12:36:24.904Z,31.36
2018-08-23T12:38:59.265Z,31.71
2018-08-23T12:41:33.644Z,32.30
2018-08-23T12:44:02.830Z,32.02
2018-08-23T12:46:32.099Z,31.63
2018-08-23T12:49:01.146Z,31.51
2018-08-23T12:51:30.267Z,31.36
2018-08-23T12:53:59.418Z,30.87
2018-08-23T12:56:28.602Z,30.77
2018-08-23T12:58:57.694Z,30.83
2018-08-23T13:01:26.906Z,30.70
2018-08-23T13:03:56.058Z,29.71
2018-08-23T13:06:25.183Z,30.40
2018-08-23T13:08:54.335Z,30.30
2018-08-23T13:11:23.497Z,29.91
2018-08-23T13:13:52.710Z,29.82
2018-08-23T13:16:22.040Z,29.69
2018-08-23T13:18:51.221Z,29.62
2018-08-23T13:21:20.328Z,30.16
2018-08-23T13:23:49.470Z,30.68
2018-08-23T13:26:18.625Z,30.69
2018-08-23T13:28:47.864Z,30.07
2018-08-23T13:31:16.984Z,30.27
2018-08-23T13:33:46.133Z,30.59
2018-08-23T13:36:15.324Z,31.15
2018-08-23T13:38:44.640Z,31.54
2018-08-23T13:41:13.826Z,31.20
2018-08-23T13:43:43.045Z,31.38
2018-08-23T13:46:12.120Z,31.16
2018-08-23T13:48:41.440Z,30.65
2018-08-23T13:51:10.570Z,30.40
2018-08-23T13:53:39.768Z,30.02
2018-08-23T13:56:08.942Z,30.32
2018-08-23T13:58:38.023Z,30.74
2018-08-23T14:01:07.130Z,31.14
2018-08-23T14:03:36.255Z,31.29
2018-08-23T14:06:05.420Z,31.26
2018-08-23T14:08:34.593Z,31.05
2018-08-23T14:11:03.975Z,31.22
2018-08-23T14:13:33.069Z,31.01
2018-08-23T14:16:05.139Z,30.83
2018-08-23T14:18:35.183Z,30.45
2018-08-23T14:21:04.381Z,30.48
2018-08-23T14:23:33.564Z,30.38
2018-08-23T14:26:02.875Z,30.33
2018-08-23T14:28:31.972Z,29.69
2018-08-23T14:31:01.188Z,29.64
2018-08-23T14:33:30.500Z,29.49
2018-08-23T14:36:00.321Z,29.52
2018-08-23T14:38:30.008Z,29.61
2018-08-23T14:40:59.164Z,29.97
2018-08-23T14:43:28.405Z,30.05
2018-08-23T14:46:02.983Z,30.13
2018-08-23T14:48:32.119Z,29.84
2018-08-23T14:51:01.273Z,29.81
2018-08-23T14:53:31.165Z,29.65
2018-08-23T14:56:05.581Z,29.64
2018-08-23T14:58:34.973Z,29.56
2018-08-23T15:01:04.158Z,29.53
2018-08-23T15:03:33.323Z,29.46
2018-08-23T15:06:02.506Z,29.20
2018-08-23T15:08:31.594Z,28.96
2018-08-23T15:11:00.765Z,28.64
2018-08-23T15:13:29.981Z,28.48
2018-08-23T15:15:59.260Z,28.67
2018-08-23T15:18:28.434Z,28.84
2018-08-23T15:20:57.624Z,28.83
2018-08-23T15:23:26.725Z,28.67
2018-08-23T15:25:55.855Z,28.50
2018-08-23T15:28:24.934Z,28.22
2018-08-23T15:30:54.056Z,28.00
2018-08-23T15:33:23.165Z,27.94
2018-08-23T15:35:52.408Z,27.91
2018-08-23T15:38:21.555Z,27.75
2018-08-23T15:40:50.828Z,27.60
2018-08-23T15:43:20.281Z,27.36
2018-08-23T15:45:49.584Z,27.30
2018-08-23T15:48:18.718Z,27.22
2018-08-23T15:50:47.989Z,26.98
2018-08-23T15:53:17.111Z,26.69
2018-08-23T15:55:46.283Z,26.58
2018-08-23T15:58:15.375Z,26.51
2018-08-23T16:00:44.564Z,26.39
2018-08-23T16:03:13.792Z,26.36
2018-08-23T16:05:43.142Z,26.38
2018-08-23T16:08:12.275Z,26.32
2018-08-23T16:10:41.416Z,26.28
2018-08-23T16:13:10.551Z,26.29
2018-08-23T16:15:39.703Z,26.34
2018-08-23T16:18:13.882Z,26.24
2018-08-23T16:20:48.389Z,26.17
2018-08-23T16:23:17.540Z,26.10
2018-08-23T16:25:46.673Z,26.12
2018-08-23T16:28:16.072Z,26.01
2018-08-23T16:30:45.209Z,25.90
2018-08-23T16:33:15.229Z,25.72
2018-08-23T16:35:44.505Z,25.63
2018-08-23T16:38:13.643Z,25.61
2018-08-23T16:40:42.803Z,25.46
2018-08-23T16:43:12.049Z,25.28
2018-08-23T16:45:41.212Z,25.25
2018-08-23T16:48:10.416Z,25.22
2018-08-23T16:50:39.549Z,25.08
2018-08-23T16:53:08.769Z,25.04
2018-08-23T16:55:37.952Z,24.98
2018-08-23T16:58:07.162Z,24.96
2018-08-23T17:00:36.338Z,24.94
2018-08-23T17:03:05.570Z,24.93
2018-08-23T17:05:34.689Z,24.90
2018-08-23T17:08:03.918Z,24.87
2018-08-23T17:10:33.058Z,24.86
2018-08-23T17:13:02.183Z,24.78
2018-08-23T17:15:36.625Z,24.67
2018-08-23T17:18:06.352Z,24.64
2018-08-23T17:20:35.420Z,24.59
2018-08-23T17:23:04.570Z,24.48
2018-08-23T17:25:34.411Z,24.46
2018-08-23T17:28:03.512Z,24.38
2018-08-23T17:30:32.671Z,24.32
2018-08-23T17:33:01.845Z,24.28
2018-08-23T17:35:31.026Z,24.22
2018-08-23T17:38:00.222Z,24.13
2018-08-23T17:40:29.362Z,24.07
2018-08-23T17:42:58.525Z,23.98
2018-08-23T17:45:27.903Z,23.94
2018-08-23T17:47:57.059Z,23.91
2018-08-23T17:50:26.236Z,23.86
2018-08-23T17:52:55.803Z,23.81
2018-08-23T17:55:25.530Z,23.76
2018-08-23T17:57:54.758Z,23.73
2018-08-23T18:00:24.148Z,23.66
2018-08-23T18:02:53.332Z,23.57
2018-08-23T18:05:22.523Z,23.47
2018-08-23T18:08:02.417Z,23.35
2018-08-23T18:10:31.547Z,23.25
2018-08-23T18:13:00.658Z,23.22
2018-08-23T18:15:34.936Z,23.17
2018-08-23T18:18:04.065Z,23.11
2018-08-23T18:20:33.256Z,23.07
2018-08-23T18:23:02.283Z,23.03
2018-08-23T18:25:31.704Z,22.99
2018-08-23T18:28:00.759Z,22.95
2018-08-23T18:30:29.945Z,22.87
2018-08-23T18:32:59.048Z,22.85
2018-08-23T18:35:28.155Z,22.80
2018-08-23T18:37:57.389Z,22.75
2018-08-23T18:40:26.476Z,22.72
2018-08-23T18:42:55.759Z,22.67
2018-08-23T18:45:25.362Z,22.63
2018-08-23T18:47:54.494Z,22.60
2018-08-23T18:50:23.632Z,22.54
2018-08-23T18:52:52.862Z,22.51
2018-08-23T18:55:22.013Z,22.44
2018-08-23T18:57:51.138Z,22.40
2018-08-23T19:00:20.788Z,22.38
2018-08-23T19:02:49.829Z,22.35
2018-08-23T19:05:18.955Z,22.30
2018-08-23T19:07:48.118Z,22.28
2018-08-23T19:10:17.323Z,22.22
2018-08-23T19:12:46.513Z,22.17
2018-08-23T19:15:19.967Z,22.13
2018-08-23T19:17:49.123Z,22.13
2018-08-23T19:20:18.376Z,22.12
2018-08-23T19:22:47.594Z,22.13
2018-08-23T19:25:16.939Z,22.11
2018-08-23T19:27:46.013Z,22.11
2018-08-23T19:30:15.296Z,22.14
2018-08-23T19:32:44.487Z,22.12
2018-08-23T19:35:13.612Z,22.17
2018-08-23T19:37:42.818Z,22.17
2018-08-23T19:40:11.976Z,22.12
2018-08-23T19:42:41.230Z,22.11
2018-08-23T19:45:10.399Z,22.08
2018-08-23T19:47:44.923Z,22.03
2018-08-23T19:50:14.142Z,22.08
2018-08-23T19:52:43.240Z,22.04
2018-08-23T19:55:12.359Z,22.00
2018-08-23T19:57:41.495Z,21.98
2018-08-23T20:00:11.215Z,21.93
2018-08-23T20:02:40.375Z,21.90
2018-08-23T20:05:09.582Z,21.91
2018-08-23T20:07:38.747Z,21.89
2018-08-23T20:10:07.974Z,21.81
2018-08-23T20:12:37.124Z,21.79
2018-08-23T20:15:06.309Z,21.75
2018-08-23T20:17:35.473Z,21.76
2018-08-23T20:20:04.650Z,21.73
2018-08-23T20:22:33.754Z,21.69
2018-08-23T20:25:02.946Z,21.67
2018-08-23T20:27:32.188Z,21.61
2018-08-23T20:30:01.323Z,21.59
2018-08-23T20:32:30.454Z,21.59
2018-08-23T20:34:59.619Z,21.54
2018-08-23T20:37:28.731Z,21.54
2018-08-23T20:39:57.896Z,21.53
2018-08-23T20:42:27.075Z,21.50
2018-08-23T20:44:56.479Z,21.52
2018-08-23T20:47:25.639Z,21.47
2018-08-23T20:49:54.779Z,21.52
2018-08-23T20:52:23.933Z,21.49
2018-08-23T20:54:53.067Z,21.43
2018-08-23T20:57:22.227Z,21.44
2018-08-23T20:59:51.344Z,21.49
2018-08-23T21:02:20.468Z,21.48
2018-08-23T21:04:49.603Z,21.49
2018-08-23T21:07:18.746Z,21.49
2018-08-23T21:09:48.014Z,21.50
2018-08-23T21:12:17.800Z,21.54
2018-08-23T21:14:46.913Z,21.51
2018-08-23T21:17:16.019Z,21.46
2018-08-23T21:19:45.187Z,21.45
2018-08-23T21:22:14.329Z,21.42
2018-08-23T21:24:43.472Z,21.37
2018-08-23T21:27:12.619Z,21.34
2018-08-23T21:29:41.694Z,21.34
2018-08-23T21:32:10.851Z,21.29
2018-08-23T21:34:39.992Z,21.25
2018-08-23T21:37:09.104Z,21.23
2018-08-23T21:39:38.303Z,21.21
2018-08-23T21:42:07.483Z,21.17
2018-08-23T21:44:36.884Z,21.22
2018-08-23T21:47:06.828Z,21.24
2018-08-23T21:49:36.012Z,21.20
2018-08-23T21:52:05.179Z,21.16
2018-08-23T21:54:34.282Z,21.16
2018-08-23T21:57:03.543Z,21.17
2018-08-23T21:59:32.714Z,21.18
2018-08-23T22:02:06.949Z,21.19
2018-08-23T22:04:41.128Z,21.21
2018-08-23T22:07:10.220Z,21.23
2018-08-23T22:09:39.432Z,21.30
2018-08-23T22:12:08.666Z,21.35
2018-08-23T22:14:37.887Z,21.41
2018-08-23T22:17:07.083Z,21.45
2018-08-23T22:19:36.279Z,21.48
2018-08-23T22:22:05.428Z,21.51
2018-08-23T22:24:34.591Z,21.56
2018-08-23T22:27:03.749Z,21.61
2018-08-23T22:29:32.814Z,21.63
2018-08-23T22:32:02.185Z,21.70
2018-08-23T22:34:31.482Z,21.72
2018-08-23T22:37:00.746Z,21.74
2018-08-23T22:39:30.313Z,21.79
2018-08-23T22:41:59.471Z,21.78
2018-08-23T22:44:28.743Z,21.82
2018-08-23T22:46:57.974Z,21.85
2018-08-23T22:49:33.722Z,21.85
2018-08-23T22:52:02.865Z,21.85
2018-08-23T22:54:31.987Z,21.86
2018-08-23T22:57:01.448Z,21.85
2018-08-23T22:59:30.592Z,21.88
2018-08-23T23:01:59.732Z,21.86
2018-08-23T23:04:29.418Z,21.85
2018-08-23T23:06:59.227Z,21.88
2018-08-23T23:09:28.426Z,21.84
2018-08-23T23:11:57.600Z,21.83
2018-08-23T23:14:26.740Z,21.83
2018-08-23T23:16:56.044Z,21.82
2018-08-23T23:19:25.800Z,21.82
2018-08-23T23:21:54.911Z,21.78
2018-08-23T23:24:29.206Z,21.75
2018-08-23T23:26:58.327Z,21.79
2018-08-23T23:29:27.460Z,21.75
2018-08-23T23:31:56.606Z,21.74
2018-08-23T23:34:25.715Z,21.70
2018-08-23T23:36:54.895Z,21.69
2018-08-23T23:39:24.046Z,21.68
2018-08-23T23:41:53.184Z,21.62
2018-08-23T23:44:22.322Z,21.60
2018-08-23T23:46:51.598Z,21.58
2018-08-23T23:49:20.758Z,21.45
2018-08-23T23:51:49.900Z,21.12
2018-08-23T23:54:19.061Z,20.82
2018-08-23T23:56:48.166Z,20.50
2018-08-23T23:59:17.288Z,20.18
